Hannut, Belgium
Current Conditions -  °F | °C
As of 10:33 PM on Friday 24 Oct 2014 (Local Time) from EBBE Reporting Station
Overcast Overcast  
Wind Chill: 52°   Ceiling: 5500
Heat Index: 52°   Visibility: 6mi
Dew Point: 48°   Wind: 15mph
Humidity: 88%   Direction: 200°SSW
Pressure: 30.03"   Gusts: NA
Location:  50.67°N, 5.08°E
Report Text: EBBE 242033Z AUTO 20013KT 9999 VV055/// 11/09 Q1017 RED
Loading
Personal Weather Stations






























Interactive Weather Map
Tropical Storm Tracking
New forecast layout! Learn more

10-Day Weather Forecast

Advertisements
Track Severe Weather on mobile